createdAt,value
2022-09-24T00:01:41.838Z,99.90
2022-09-24T00:04:12.788Z,99.90
2022-09-24T00:06:46.898Z,99.90
2022-09-24T00:09:16.207Z,99.90
2022-09-24T00:11:45.291Z,99.90
2022-09-24T00:14:12.745Z,99.90
2022-09-24T00:16:43.751Z,99.90
2022-09-24T00:19:12.412Z,99.90
2022-09-24T00:21:40.485Z,99.90
2022-09-24T00:24:09.951Z,99.90
2022-09-24T00:26:54.586Z,99.90
2022-09-24T00:29:24.150Z,99.90
2022-09-24T00:31:52.858Z,99.90
2022-09-24T00:34:20.653Z,99.90
2022-09-24T00:36:48.353Z,99.90
2022-09-24T00:39:15.829Z,99.90
2022-09-24T00:41:45.344Z,99.90
2022-09-24T00:44:46.123Z,99.90
2022-09-24T00:47:18.827Z,99.90
2022-09-24T00:49:49.008Z,99.90
2022-09-24T00:52:19.109Z,99.90
2022-09-24T00:54:46.431Z,99.90
2022-09-24T00:57:14.031Z,99.90
2022-09-24T00:59:42.104Z,99.90
2022-09-24T01:02:08.910Z,99.90
2022-09-24T01:04:35.736Z,99.90
2022-09-24T01:07:03.185Z,99.90
2022-09-24T01:09:30.206Z,99.90
2022-09-24T01:12:31.416Z,99.90
2022-09-24T01:15:01.066Z,99.90
2022-09-24T01:17:37.314Z,99.90
2022-09-24T01:20:18.801Z,99.90
2022-09-24T01:23:15.859Z,99.90
2022-09-24T01:26:05.115Z,99.90
2022-09-24T01:28:52.678Z,99.90
2022-09-24T01:31:34.270Z,99.90
2022-09-24T01:34:05.734Z,99.90
2022-09-24T01:36:35.244Z,99.90
2022-09-24T01:39:04.436Z,99.90
2022-09-24T01:41:34.237Z,99.90
2022-09-24T01:44:04.980Z,99.90
2022-09-24T01:46:32.186Z,99.90
2022-09-24T01:49:01.560Z,99.90
2022-09-24T01:51:35.506Z,99.90
2022-09-24T01:54:07.949Z,99.90
2022-09-24T01:57:12.842Z,99.90
2022-09-24T01:59:41.705Z,99.90
2022-09-24T02:02:14.476Z,99.90
2022-09-24T02:04:50.184Z,99.90
2022-09-24T02:07:40.212Z,99.90
2022-09-24T02:10:20.228Z,99.90
2022-09-24T02:12:52.759Z,99.90
2022-09-24T02:15:32.982Z,99.90
2022-09-24T02:18:04.675Z,99.90
2022-09-24T02:20:32.340Z,99.90
2022-09-24T02:22:59.447Z,99.90
2022-09-24T02:25:34.837Z,99.90
2022-09-24T02:28:03.818Z,99.90
2022-09-24T02:30:36.206Z,99.90
2022-09-24T02:33:23.782Z,99.90
2022-09-24T02:35:52.423Z,99.90
2022-09-24T02:38:19.695Z,99.90
2022-09-24T02:40:53.340Z,99.90
2022-09-24T02:43:20.349Z,99.90
2022-09-24T02:45:49.626Z,99.90
2022-09-24T02:48:18.739Z,99.90
2022-09-24T02:50:46.070Z,99.90
2022-09-24T02:53:12.752Z,99.90
2022-09-24T02:55:39.445Z,99.90
2022-09-24T02:58:06.066Z,99.90
2022-09-24T03:00:32.690Z,99.90
2022-09-24T03:03:01.641Z,99.90
2022-09-24T03:05:29.927Z,99.90
2022-09-24T03:07:58.810Z,99.90
2022-09-24T03:10:26.145Z,99.90
2022-09-24T03:12:52.884Z,99.90
2022-09-24T03:15:19.583Z,99.90
2022-09-24T03:17:48.796Z,99.90
2022-09-24T03:20:15.506Z,99.90
2022-09-24T03:22:42.867Z,99.90
2022-09-24T03:25:11.094Z,99.90
2022-09-24T03:27:40.064Z,99.90
2022-09-24T03:30:25.806Z,99.90
2022-09-24T03:32:52.498Z,99.90
2022-09-24T03:35:19.794Z,99.90
2022-09-24T03:37:49.381Z,99.90
2022-09-24T03:40:20.901Z,99.90
2022-09-24T03:42:49.799Z,99.90
2022-09-24T03:45:16.469Z,99.90
2022-09-24T03:47:45.305Z,99.90
2022-09-24T03:50:14.319Z,99.90
2022-09-24T03:52:41.365Z,99.90
2022-09-24T03:55:08.544Z,99.90
2022-09-24T03:57:35.182Z,99.90
2022-09-24T04:00:02.163Z,99.90
2022-09-24T04:02:28.865Z,99.90
2022-09-24T04:04:55.580Z,99.90
2022-09-24T04:07:22.216Z,99.90
2022-09-24T04:09:48.827Z,99.90
2022-09-24T04:12:15.504Z,99.90
2022-09-24T04:14:42.201Z,99.90
2022-09-24T04:17:12.805Z,99.90
2022-09-24T04:19:42.037Z,99.90
2022-09-24T04:22:08.811Z,99.90
2022-09-24T04:24:35.581Z,99.90
2022-09-24T04:27:02.474Z,99.90
2022-09-24T04:29:29.255Z,99.90
2022-09-24T04:31:56.805Z,99.90
2022-09-24T04:34:23.447Z,99.90
2022-09-24T04:36:50.090Z,99.90
2022-09-24T04:39:16.725Z,99.90
2022-09-24T04:41:43.766Z,99.90
2022-09-24T04:44:13.424Z,99.90
2022-09-24T04:46:40.254Z,99.90
2022-09-24T04:49:09.760Z,99.90
2022-09-24T04:51:36.504Z,99.90
2022-09-24T04:54:06.682Z,99.90
2022-09-24T04:56:33.327Z,99.90
2022-09-24T04:59:00.060Z,99.90
2022-09-24T05:01:29.519Z,99.90
2022-09-24T05:03:56.251Z,99.90
2022-09-24T05:06:22.883Z,99.90
2022-09-24T05:08:49.565Z,99.90
2022-09-24T05:11:19.383Z,99.90
2022-09-24T05:13:46.082Z,99.90
2022-09-24T05:16:12.841Z,99.90
2022-09-24T05:18:39.663Z,99.90
2022-09-24T05:21:06.474Z,99.90
2022-09-24T05:23:33.161Z,99.90
2022-09-24T05:26:18.359Z,99.90
2022-09-24T05:28:45.034Z,99.90
2022-09-24T05:31:11.864Z,99.90
2022-09-24T05:33:38.581Z,99.90
2022-09-24T05:36:05.503Z,99.90
2022-09-24T05:38:33.012Z,99.90
2022-09-24T05:41:01.937Z,99.90
2022-09-24T05:43:28.769Z,99.90
2022-09-24T05:46:00.021Z,99.90
2022-09-24T05:48:26.751Z,99.90
2022-09-24T05:50:58.675Z,99.90
2022-09-24T05:53:25.428Z,99.90
2022-09-24T05:55:52.136Z,99.90
2022-09-24T05:58:18.806Z,99.90
2022-09-24T06:00:45.539Z,99.90
2022-09-24T06:03:17.210Z,99.90
2022-09-24T06:05:46.504Z,99.90
2022-09-24T06:08:15.291Z,99.90
2022-09-24T06:10:44.077Z,99.90
2022-09-24T06:13:14.294Z,99.90
2022-09-24T06:15:42.256Z,99.90
2022-09-24T06:18:09.822Z,99.90
2022-09-24T06:20:40.225Z,99.90
2022-09-24T06:23:07.650Z,99.90
2022-09-24T06:25:34.591Z,99.90
2022-09-24T06:28:03.280Z,99.90
2022-09-24T06:30:39.941Z,99.90
2022-09-24T06:33:09.688Z,99.90
2022-09-24T06:35:37.614Z,99.90
2022-09-24T06:38:05.586Z,99.90
2022-09-24T06:40:37.095Z,99.90
2022-09-24T06:43:05.941Z,99.90
2022-09-24T06:45:32.820Z,99.90
2022-09-24T06:48:03.714Z,99.90
2022-09-24T06:50:32.407Z,99.90
2022-09-24T06:53:01.334Z,99.90
2022-09-24T06:55:28.020Z,99.90
2022-09-24T06:58:13.126Z,99.90
2022-09-24T07:00:40.915Z,99.90
2022-09-24T07:03:09.903Z,99.90
2022-09-24T07:05:41.056Z,99.90
2022-09-24T07:08:12.348Z,99.90
2022-09-24T07:10:46.180Z,99.90
2022-09-24T07:13:17.754Z,99.90
2022-09-24T07:15:45.517Z,99.90
2022-09-24T07:18:18.202Z,99.90
2022-09-24T07:20:45.177Z,99.90
2022-09-24T07:23:14.472Z,99.90
2022-09-24T07:25:43.426Z,99.90
2022-09-24T07:28:16.491Z,99.90
2022-09-24T07:30:43.382Z,99.90
2022-09-24T07:33:10.066Z,99.90
2022-09-24T07:35:39.989Z,99.90
2022-09-24T07:38:12.068Z,99.90
2022-09-24T07:40:38.914Z,99.90
2022-09-24T07:43:13.663Z,99.90
2022-09-24T07:45:41.492Z,99.90
2022-09-24T07:48:15.677Z,99.90
2022-09-24T07:50:44.986Z,99.90
2022-09-24T07:53:15.084Z,99.90
2022-09-24T07:55:41.726Z,99.90
2022-09-24T07:58:11.695Z,99.90
2022-09-24T08:00:38.682Z,99.90
2022-09-24T08:03:05.552Z,99.90
2022-09-24T08:05:33.258Z,99.90
2022-09-24T08:08:02.966Z,99.90
2022-09-24T08:10:29.815Z,99.90
2022-09-24T08:12:59.183Z,99.90
2022-09-24T08:15:27.944Z,99.90
2022-09-24T08:17:56.723Z,99.90
2022-09-24T08:20:24.607Z,99.90
2022-09-24T08:22:51.443Z,99.90
2022-09-24T08:25:18.239Z,99.90
2022-09-24T08:27:47.432Z,99.90
2022-09-24T08:30:16.346Z,99.90
2022-09-24T08:32:48.248Z,99.90
2022-09-24T08:35:18.698Z,99.90
2022-09-24T08:37:47.475Z,99.90
2022-09-24T08:40:21.736Z,99.90
2022-09-24T08:43:15.232Z,99.90
2022-09-24T08:46:08.060Z,99.90
2022-09-24T08:48:38.298Z,99.90
2022-09-24T08:51:12.834Z,99.90
2022-09-24T08:53:45.260Z,99.90
2022-09-24T08:56:12.535Z,99.90
2022-09-24T08:58:48.763Z,99.90
2022-09-24T09:01:31.842Z,99.90
2022-09-24T09:04:40.216Z,99.90
2022-09-24T09:07:24.581Z,99.90
2022-09-24T09:10:05.568Z,99.90
2022-09-24T09:12:48.576Z,99.90
2022-09-24T09:15:23.698Z,99.90
2022-09-24T09:18:13.099Z,99.90
2022-09-24T09:20:45.149Z,99.90
2022-09-24T09:23:18.986Z,99.90
2022-09-24T09:25:56.922Z,99.90
2022-09-24T09:28:26.937Z,99.90
2022-09-24T09:31:06.821Z,99.90
2022-09-24T09:33:39.434Z,99.90
2022-09-24T09:36:30.897Z,99.90
2022-09-24T09:39:28.372Z,99.90
2022-09-24T09:42:32.493Z,99.90
2022-09-24T09:45:37.907Z,99.90
2022-09-24T09:48:05.667Z,99.90
2022-09-24T09:50:46.481Z,99.90
2022-09-24T09:53:27.751Z,99.90
2022-09-24T09:56:03.039Z,99.90
2022-09-24T09:58:36.096Z,99.90
2022-09-24T10:01:15.599Z,99.90
2022-09-24T10:03:55.197Z,99.90
2022-09-24T10:06:31.179Z,99.90
2022-09-24T10:09:29.639Z,99.90
2022-09-24T10:12:14.208Z,99.90
2022-09-24T10:14:40.861Z,99.90
2022-09-24T10:17:16.535Z,99.90
2022-09-24T10:19:47.712Z,99.90
2022-09-24T10:22:24.585Z,99.90
2022-09-24T10:24:54.913Z,99.90
2022-09-24T10:27:37.694Z,99.90
2022-09-24T10:30:34.621Z,99.90
2022-09-24T10:33:03.574Z,99.90
2022-09-24T10:35:37.606Z,99.90
2022-09-24T10:38:19.817Z,99.90
2022-09-24T10:40:47.704Z,99.90
2022-09-24T10:43:20.276Z,99.90
2022-09-24T10:45:57.304Z,99.90
2022-09-24T10:48:29.628Z,99.90
2022-09-24T10:51:44.199Z,99.90
2022-09-24T10:54:27.698Z,99.90
2022-09-24T10:56:59.538Z,99.90
2022-09-24T10:59:42.253Z,99.90
2022-09-24T11:02:29.914Z,99.90
2022-09-24T11:05:00.451Z,99.90
2022-09-24T11:07:41.941Z,99.90
2022-09-24T11:10:23.544Z,99.90
2022-09-24T11:13:20.737Z,99.90
2022-09-24T11:16:32.313Z,99.90
2022-09-24T11:19:05.326Z,99.90
2022-09-24T11:21:32.213Z,99.90
2022-09-24T11:24:11.451Z,99.90
2022-09-24T11:27:08.680Z,99.90
2022-09-24T11:30:02.633Z,99.90
2022-09-24T11:32:37.660Z,99.90
2022-09-24T11:35:28.974Z,99.90
2022-09-24T11:38:13.236Z,99.90
2022-09-24T11:40:42.741Z,99.90
2022-09-24T11:43:43.886Z,99.90
2022-09-24T11:46:38.421Z,99.90
2022-09-24T11:49:42.425Z,99.90
2022-09-24T11:52:51.659Z,99.90
2022-09-24T11:55:32.556Z,99.90
2022-09-24T11:58:29.097Z,99.90
2022-09-24T12:01:15.660Z,99.90
2022-09-24T12:03:48.230Z,99.90
2022-09-24T12:06:24.285Z,99.90
2022-09-24T12:08:57.697Z,99.90
2022-09-24T12:11:33.867Z,99.90
2022-09-24T12:14:10.408Z,99.90
2022-09-24T12:16:39.279Z,99.90
2022-09-24T12:19:25.624Z,99.90
2022-09-24T12:21:55.960Z,99.90
2022-09-24T12:24:33.137Z,99.90
2022-09-24T12:27:04.387Z,99.90
2022-09-24T12:30:08.560Z,99.90
2022-09-24T12:32:57.034Z,99.90
2022-09-24T12:35:33.607Z,99.90
2022-09-24T12:38:10.629Z,99.90
2022-09-24T12:41:11.432Z,99.90
2022-09-24T12:43:45.744Z,99.90
2022-09-24T12:46:26.204Z,99.90
2022-09-24T12:48:54.515Z,99.90
2022-09-24T12:51:23.947Z,99.90
2022-09-24T12:54:17.916Z,99.90
2022-09-24T12:56:44.715Z,99.90
2022-09-24T12:59:29.376Z,99.90
2022-09-24T13:02:14.724Z,99.90
2022-09-24T13:04:47.869Z,99.90
2022-09-24T13:07:34.064Z,99.90
2022-09-24T13:10:34.486Z,99.90
2022-09-24T13:13:02.781Z,99.90
2022-09-24T13:15:42.016Z,99.90
2022-09-24T13:18:24.133Z,99.90
2022-09-24T13:21:18.900Z,99.90
2022-09-24T13:23:51.136Z,99.90
2022-09-24T13:26:23.308Z,99.90
2022-09-24T13:29:01.750Z,99.90
2022-09-24T13:31:28.809Z,99.90
2022-09-24T13:34:17.792Z,99.90
2022-09-24T13:36:54.659Z,99.90
2022-09-24T13:39:40.858Z,99.90
2022-09-24T13:42:25.744Z,99.90
2022-09-24T13:44:58.105Z,99.90
2022-09-24T13:47:43.682Z,99.90
2022-09-24T13:50:18.089Z,99.90
2022-09-24T13:52:52.879Z,99.90
2022-09-24T13:55:53.641Z,99.90
2022-09-24T13:58:34.308Z,99.90
2022-09-24T14:01:12.529Z,99.90
2022-09-24T14:03:43.392Z,99.90
2022-09-24T14:06:18.108Z,99.90
2022-09-24T14:08:47.969Z,99.90
2022-09-24T14:11:17.236Z,99.90
2022-09-24T14:13:47.188Z,99.90
2022-09-24T14:16:19.879Z,99.90
2022-09-24T14:18:47.370Z,99.90
2022-09-24T14:21:39.687Z,99.90
2022-09-24T14:24:35.885Z,99.90
2022-09-24T14:27:09.690Z,99.90
2022-09-24T14:29:48.178Z,99.90
2022-09-24T14:32:29.377Z,99.90
2022-09-24T14:35:03.673Z,99.90
2022-09-24T14:37:37.585Z,99.90
2022-09-24T14:40:15.710Z,99.90
2022-09-24T14:42:57.085Z,99.90
2022-09-24T14:45:41.685Z,99.90
2022-09-24T14:48:34.222Z,99.90
2022-09-24T14:51:05.738Z,99.90
2022-09-24T14:53:35.899Z,99.90
2022-09-24T14:56:34.083Z,99.90
2022-09-24T14:59:13.110Z,99.90
2022-09-24T15:01:39.941Z,99.90
2022-09-24T15:04:20.317Z,99.90
2022-09-24T15:06:50.229Z,99.90
2022-09-24T15:09:26.216Z,99.90
2022-09-24T15:11:55.143Z,99.90
2022-09-24T15:14:27.494Z,99.90
2022-09-24T15:16:58.193Z,99.90
2022-09-24T15:19:28.813Z,99.90
2022-09-24T15:21:56.940Z,99.90
2022-09-24T15:24:27.309Z,98.80
2022-09-24T15:27:15.733Z,96.60
2022-09-24T15:29:42.398Z,95.80
2022-09-24T15:32:16.205Z,95.40
2022-09-24T15:34:43.113Z,95.50
2022-09-24T15:37:15.315Z,95.80
2022-09-24T15:39:49.082Z,96.30
2022-09-24T15:42:21.286Z,96.60
2022-09-24T15:44:50.833Z,97.20
2022-09-24T15:47:18.521Z,97.20
2022-09-24T15:49:48.074Z,97.10
2022-09-24T15:52:24.844Z,98.10
2022-09-24T15:54:56.006Z,98.20
2022-09-24T15:57:23.002Z,99.10
2022-09-24T15:59:50.134Z,98.80
2022-09-24T16:02:34.422Z,99.60
2022-09-24T16:05:03.807Z,99.80
2022-09-24T16:07:31.006Z,99.90
2022-09-24T16:10:02.452Z,99.90
2022-09-24T16:12:31.358Z,99.90
2022-09-24T16:15:00.461Z,99.90
2022-09-24T16:17:28.450Z,99.90
2022-09-24T16:19:55.343Z,99.90
2022-09-24T16:22:22.143Z,99.90
2022-09-24T16:24:48.827Z,99.90
2022-09-24T16:27:15.608Z,99.90
2022-09-24T16:29:42.274Z,99.90
2022-09-24T16:32:09.131Z,99.90
2022-09-24T16:34:35.827Z,99.90
2022-09-24T16:37:02.445Z,99.90
2022-09-24T16:39:29.182Z,99.90
2022-09-24T16:41:55.911Z,99.90
2022-09-24T16:44:22.676Z,99.90
2022-09-24T16:46:49.469Z,99.90
2022-09-24T16:49:16.400Z,99.90
2022-09-24T16:51:43.038Z,99.90
2022-09-24T16:54:09.880Z,99.90
2022-09-24T16:56:37.461Z,99.90
2022-09-24T16:59:04.210Z,99.90
2022-09-24T17:01:33.567Z,99.90
2022-09-24T17:04:03.375Z,99.90
2022-09-24T17:06:34.009Z,99.90
2022-09-24T17:09:19.614Z,99.90
2022-09-24T17:11:49.523Z,99.90
2022-09-24T17:14:17.773Z,99.90
2022-09-24T17:16:46.898Z,99.90
2022-09-24T17:19:13.615Z,99.90
2022-09-24T17:21:43.040Z,99.90
2022-09-24T17:24:10.052Z,99.90
2022-09-24T17:26:38.307Z,99.90
2022-09-24T17:29:05.196Z,99.90
2022-09-24T17:31:34.401Z,99.90
2022-09-24T17:34:07.318Z,99.90
2022-09-24T17:36:39.213Z,99.90
2022-09-24T17:39:06.480Z,99.90
2022-09-24T17:41:34.182Z,99.90
2022-09-24T17:44:03.589Z,99.90
2022-09-24T17:46:32.013Z,99.90
2022-09-24T17:49:00.136Z,99.90
2022-09-24T17:51:32.829Z,99.90
2022-09-24T17:54:01.726Z,99.90
2022-09-24T17:56:32.628Z,99.90
2022-09-24T17:59:00.591Z,99.90
2022-09-24T18:01:36.011Z,99.90
2022-09-24T18:04:08.028Z,99.90
2022-09-24T18:06:42.303Z,99.90
2022-09-24T18:09:13.305Z,99.90
2022-09-24T18:11:47.160Z,99.90
2022-09-24T18:14:15.067Z,99.90
2022-09-24T18:16:42.083Z,99.90
2022-09-24T18:19:10.264Z,99.90
2022-09-24T18:21:37.335Z,99.90
2022-09-24T18:24:04.556Z,99.90
2022-09-24T18:26:35.314Z,99.90
2022-09-24T18:29:06.120Z,99.90
2022-09-24T18:31:33.276Z,99.90
2022-09-24T18:34:05.852Z,99.90
2022-09-24T18:36:37.597Z,99.90
2022-09-24T18:39:06.574Z,99.90
2022-09-24T18:41:34.714Z,99.90
2022-09-24T18:44:07.237Z,99.90
2022-09-24T18:46:37.375Z,99.90
2022-09-24T18:49:07.233Z,99.90
2022-09-24T18:51:38.192Z,99.90
2022-09-24T18:54:15.779Z,99.90
2022-09-24T18:56:46.671Z,99.90
2022-09-24T18:59:17.021Z,99.90
2022-09-24T19:01:45.481Z,99.90
2022-09-24T19:04:16.025Z,99.90
2022-09-24T19:06:47.980Z,99.90
2022-09-24T19:09:20.282Z,99.90
2022-09-24T19:11:48.675Z,99.90
2022-09-24T19:14:18.379Z,99.90
2022-09-24T19:16:46.076Z,99.90
2022-09-24T19:19:13.058Z,99.90
2022-09-24T19:21:40.660Z,99.90
2022-09-24T19:24:11.080Z,99.90
2022-09-24T19:26:37.917Z,99.90
2022-09-24T19:29:07.267Z,99.90
2022-09-24T19:31:38.760Z,99.90
2022-09-24T19:34:08.145Z,99.90
2022-09-24T19:36:43.673Z,99.90
2022-09-24T19:39:16.976Z,99.90
2022-09-24T19:41:44.261Z,99.90
2022-09-24T19:44:11.402Z,99.90
2022-09-24T19:46:41.423Z,99.90
2022-09-24T19:49:08.648Z,99.90
2022-09-24T19:51:36.492Z,99.90
2022-09-24T19:54:08.115Z,99.90
2022-09-24T19:56:35.921Z,99.90
2022-09-24T19:59:05.455Z,99.90
2022-09-24T20:01:33.410Z,99.90
2022-09-24T20:04:03.990Z,99.90
2022-09-24T20:06:35.594Z,99.90
2022-09-24T20:09:04.962Z,99.90
2022-09-24T20:11:32.892Z,99.90
2022-09-24T20:14:02.847Z,99.90
2022-09-24T20:16:32.949Z,99.90
2022-09-24T20:19:03.138Z,99.90
2022-09-24T20:21:34.958Z,99.90
2022-09-24T20:24:03.702Z,99.90
2022-09-24T20:26:49.253Z,99.90
2022-09-24T20:29:16.487Z,99.90
2022-09-24T20:31:53.612Z,99.90
2022-09-24T20:34:25.734Z,99.90
2022-09-24T20:36:52.408Z,99.90
2022-09-24T20:39:23.752Z,99.90
2022-09-24T20:41:50.631Z,99.90
2022-09-24T20:44:17.948Z,99.90
2022-09-24T20:46:44.877Z,99.90
2022-09-24T20:49:23.002Z,99.90
2022-09-24T20:52:03.073Z,99.90
2022-09-24T20:54:30.094Z,99.90
2022-09-24T20:56:57.818Z,99.90
2022-09-24T20:59:25.905Z,99.90
2022-09-24T21:01:54.041Z,99.90
2022-09-24T21:04:22.386Z,99.90
2022-09-24T21:06:50.405Z,99.90
2022-09-24T21:09:17.336Z,99.90
2022-09-24T21:11:44.146Z,99.90
2022-09-24T21:14:12.002Z,99.90
2022-09-24T21:16:38.973Z,99.90
2022-09-24T21:19:08.940Z,99.90
2022-09-24T21:21:38.506Z,99.90
2022-09-24T21:24:07.773Z,99.90
2022-09-24T21:26:37.597Z,99.90
2022-09-24T21:29:10.469Z,99.90
2022-09-24T21:31:39.406Z,99.90
2022-09-24T21:34:07.293Z,99.90
2022-09-24T21:36:43.658Z,99.90
2022-09-24T21:39:23.535Z,99.90
2022-09-24T21:41:54.935Z,99.90
2022-09-24T21:44:22.279Z,99.90
2022-09-24T21:46:52.333Z,99.90
2022-09-24T21:49:20.609Z,99.90
2022-09-24T21:51:47.962Z,99.90
2022-09-24T21:54:17.662Z,99.90
2022-09-24T21:56:47.828Z,99.90
2022-09-24T21:59:34.344Z,99.90
2022-09-24T22:02:01.941Z,99.90
2022-09-24T22:04:29.423Z,99.90
2022-09-24T22:06:56.138Z,99.90
2022-09-24T22:09:24.700Z,99.90
2022-09-24T22:11:55.859Z,99.90
2022-09-24T22:14:23.365Z,99.90
2022-09-24T22:16:50.194Z,99.90
2022-09-24T22:19:17.384Z,99.90
2022-09-24T22:21:46.965Z,99.90
2022-09-24T22:24:14.588Z,99.90
2022-09-24T22:26:41.319Z,99.90
2022-09-24T22:29:07.950Z,99.90
2022-09-24T22:31:34.676Z,99.90
2022-09-24T22:34:19.803Z,99.90
2022-09-24T22:36:47.957Z,99.90
2022-09-24T22:39:15.421Z,99.90
2022-09-24T22:41:44.212Z,99.90
2022-09-24T22:44:12.015Z,99.90
2022-09-24T22:46:39.516Z,99.90
2022-09-24T22:49:06.791Z,99.90
2022-09-24T22:51:33.884Z,99.90
2022-09-24T22:54:00.754Z,99.90
2022-09-24T22:56:30.017Z,99.90
2022-09-24T22:59:01.820Z,99.90
2022-09-24T23:01:40.087Z,99.90
2022-09-24T23:04:10.146Z,99.90
2022-09-24T23:06:37.245Z,99.90
2022-09-24T23:09:06.581Z,99.90
2022-09-24T23:11:35.101Z,99.90
2022-09-24T23:14:13.734Z,99.90
2022-09-24T23:16:42.699Z,99.90
2022-09-24T23:19:19.078Z,99.90
2022-09-24T23:21:46.189Z,99.90
2022-09-24T23:24:19.456Z,99.90
2022-09-24T23:26:50.163Z,99.90
2022-09-24T23:29:16.803Z,99.90
2022-09-24T23:31:43.521Z,99.90
2022-09-24T23:34:12.641Z,99.90
2022-09-24T23:36:39.659Z,99.90
2022-09-24T23:39:06.337Z,99.90
2022-09-24T23:41:37.752Z,99.90
2022-09-24T23:44:07.087Z,99.90
2022-09-24T23:46:34.020Z,99.90
2022-09-24T23:49:00.849Z,99.90
2022-09-24T23:51:29.757Z,99.90
2022-09-24T23:53:56.390Z,99.90
2022-09-24T23:56:25.666Z,99.90
2022-09-24T23:58:54.897Z,99.90
